createdAt,value
2019-02-20T00:00:10.614Z,1013.17
2019-02-20T00:01:10.609Z,1013.16
2019-02-20T00:02:10.605Z,1013.15
2019-02-20T00:03:10.591Z,1013.17
2019-02-20T00:04:10.586Z,1013.22
2019-02-20T00:05:10.575Z,1013.18
2019-02-20T00:06:10.573Z,1013.19
2019-02-20T00:07:10.565Z,1013.19
2019-02-20T00:08:10.555Z,1013.22
2019-02-20T00:09:10.545Z,1013.19
2019-02-20T00:10:10.538Z,1013.20
2019-02-20T00:11:10.533Z,1013.22
2019-02-20T00:12:10.523Z,1013.18
2019-02-20T00:13:10.515Z,1013.20
2019-02-20T00:14:10.506Z,1013.19
2019-02-20T00:15:10.493Z,1013.20
2019-02-20T00:16:10.490Z,1013.19
2019-02-20T00:17:10.481Z,1013.21
2019-02-20T00:18:10.472Z,1013.19
2019-02-20T00:19:10.467Z,1013.25
2019-02-20T00:20:10.457Z,1013.25
2019-02-20T00:21:10.450Z,1013.21
2019-02-20T00:22:10.548Z,1013.28
2019-02-20T00:23:10.437Z,1013.27
2019-02-20T00:24:10.423Z,1013.30
2019-02-20T00:25:10.417Z,1013.30
2019-02-20T00:26:10.412Z,1013.30
2019-02-20T00:27:10.394Z,1013.33
2019-02-20T00:28:10.394Z,1013.27
2019-02-20T00:29:10.390Z,1013.30
2019-02-20T00:30:10.379Z,1013.33
2019-02-20T00:31:10.373Z,1013.30
2019-02-20T00:32:10.361Z,1013.32
2019-02-20T00:33:10.360Z,1013.27
2019-02-20T00:34:10.345Z,1013.25
2019-02-20T00:35:10.341Z,1013.26
2019-02-20T00:36:10.335Z,1013.26
2019-02-20T00:37:10.324Z,1013.28
2019-02-20T00:38:10.320Z,1013.25
2019-02-20T00:39:10.316Z,1013.23
2019-02-20T00:40:10.304Z,1013.26
2019-02-20T00:41:10.294Z,1013.25
2019-02-20T00:42:10.282Z,1013.27
2019-02-20T00:43:10.278Z,1013.28
2019-02-20T00:44:10.269Z,1013.31
2019-02-20T00:45:10.271Z,1013.35
2019-02-20T00:46:10.254Z,1013.32
2019-02-20T00:47:10.250Z,1013.35
2019-02-20T00:48:10.239Z,1013.29
2019-02-20T00:49:10.229Z,1013.31
2019-02-20T00:50:10.225Z,1013.33
2019-02-20T00:51:10.210Z,1013.33
2019-02-20T00:52:10.215Z,1013.32
2019-02-20T00:53:10.201Z,1013.31
2019-02-20T00:54:10.202Z,1013.36
2019-02-20T00:55:10.185Z,1013.35
2019-02-20T00:56:10.173Z,1013.37
2019-02-20T00:57:10.168Z,1013.38
2019-02-20T00:58:10.161Z,1013.33
2019-02-20T00:59:10.156Z,1013.33
2019-02-20T01:00:10.144Z,1013.41
2019-02-20T01:01:10.139Z,1013.40
2019-02-20T01:02:10.128Z,1013.40
2019-02-20T01:03:10.119Z,1013.41
2019-02-20T01:04:10.112Z,1013.38
2019-02-20T01:05:10.125Z,1013.42
2019-02-20T01:06:10.099Z,1013.46
2019-02-20T01:07:10.088Z,1013.46
2019-02-20T01:08:10.080Z,1013.47
2019-02-20T01:09:10.072Z,1013.46
2019-02-20T01:10:10.070Z,1013.50
2019-02-20T01:11:10.059Z,1013.53
2019-02-20T01:12:10.050Z,1013.51
2019-02-20T01:13:10.062Z,1013.49
2019-02-20T01:14:10.037Z,1013.44
2019-02-20T01:15:10.031Z,1013.45
2019-02-20T01:16:10.021Z,1013.44
2019-02-20T01:17:10.010Z,1013.44
2019-02-20T01:18:10.008Z,1013.46
2019-02-20T01:19:09.997Z,1013.42
2019-02-20T01:20:09.986Z,1013.40
2019-02-20T01:21:09.980Z,1013.43
2019-02-20T01:22:09.972Z,1013.43
2019-02-20T01:23:09.962Z,1013.43
2019-02-20T01:24:09.956Z,1013.42
2019-02-20T01:25:09.949Z,1013.44
2019-02-20T01:26:09.939Z,1013.43
2019-02-20T01:27:09.933Z,1013.44
2019-02-20T01:28:09.925Z,1013.40
2019-02-20T01:29:09.920Z,1013.41
2019-02-20T01:30:09.909Z,1013.42
2019-02-20T01:31:09.898Z,1013.39
2019-02-20T01:32:09.890Z,1013.39
2019-02-20T01:33:09.885Z,1013.36
2019-02-20T01:34:09.886Z,1013.37
2019-02-20T01:35:09.870Z,1013.31
2019-02-20T01:36:09.864Z,1013.33
2019-02-20T01:37:09.855Z,1013.36
2019-02-20T01:38:09.846Z,1013.37
2019-02-20T01:39:09.836Z,1013.34
2019-02-20T01:40:09.829Z,1013.36
2019-02-20T01:41:09.825Z,1013.37
2019-02-20T01:42:09.814Z,1013.38
2019-02-20T01:43:09.803Z,1013.38
2019-02-20T01:44:09.795Z,1013.38
2019-02-20T01:45:09.792Z,1013.37
2019-02-20T01:46:09.784Z,1013.38
2019-02-20T01:47:09.774Z,1013.40
2019-02-20T01:48:09.767Z,1013.43
2019-02-20T01:49:09.761Z,1013.39
2019-02-20T01:50:09.753Z,1013.40
2019-02-20T01:51:09.746Z,1013.42
2019-02-20T01:52:09.733Z,1013.40
2019-02-20T01:53:10.588Z,1013.38
2019-02-20T01:54:09.727Z,1013.38
2019-02-20T01:55:09.711Z,1013.41
2019-02-20T01:56:09.703Z,1013.39
2019-02-20T01:57:09.706Z,1013.38
2019-02-20T01:58:09.687Z,1013.42
2019-02-20T01:59:09.680Z,1013.37
2019-02-20T02:00:09.678Z,1013.37
2019-02-20T02:01:09.667Z,1013.38
2019-02-20T02:02:09.659Z,1013.36
2019-02-20T02:03:09.648Z,1013.37
2019-02-20T02:04:09.639Z,1013.34
2019-02-20T02:05:15.306Z,1013.33
2019-02-20T02:06:09.627Z,1013.35
2019-02-20T02:07:09.615Z,1013.35
2019-02-20T02:08:09.610Z,1013.35
2019-02-20T02:09:09.603Z,1013.35
2019-02-20T02:10:09.595Z,1013.36
2019-02-20T02:11:09.585Z,1013.33
2019-02-20T02:12:09.578Z,1013.34
2019-02-20T02:13:09.567Z,1013.35
2019-02-20T02:14:09.573Z,1013.36
2019-02-20T02:15:09.553Z,1013.37
2019-02-20T02:16:09.543Z,1013.36
2019-02-20T02:17:09.536Z,1013.35
2019-02-20T02:18:09.529Z,1013.32
2019-02-20T02:19:09.530Z,1013.33
2019-02-20T02:20:09.516Z,1013.29
2019-02-20T02:21:09.504Z,1013.29
2019-02-20T02:22:09.501Z,1013.33
2019-02-20T02:23:09.489Z,1013.31
2019-02-20T02:24:09.481Z,1013.29
2019-02-20T02:25:09.471Z,1013.32
2019-02-20T02:26:11.137Z,1013.35
2019-02-20T02:27:09.457Z,1013.35
2019-02-20T02:28:09.448Z,1013.38
2019-02-20T02:29:09.448Z,1013.39
2019-02-20T02:30:09.433Z,1013.40
2019-02-20T02:31:09.438Z,1013.38
2019-02-20T02:32:09.421Z,1013.38
2019-02-20T02:33:09.408Z,1013.36
2019-02-20T02:34:09.398Z,1013.41
2019-02-20T02:35:09.394Z,1013.43
2019-02-20T02:36:09.397Z,1013.39
2019-02-20T02:37:09.387Z,1013.39
2019-02-20T02:38:09.373Z,1013.38
2019-02-20T02:39:09.360Z,1013.41
2019-02-20T02:40:09.350Z,1013.37
2019-02-20T02:41:09.341Z,1013.39
2019-02-20T02:42:09.334Z,1013.38
2019-02-20T02:43:09.326Z,1013.38
2019-02-20T02:44:09.318Z,1013.35
2019-02-20T02:45:09.313Z,1013.33
2019-02-20T02:46:09.305Z,1013.41
2019-02-20T02:47:09.295Z,1013.44
2019-02-20T02:48:09.284Z,1013.43
2019-02-20T02:49:09.285Z,1013.47
2019-02-20T02:50:09.270Z,1013.44
2019-02-20T02:51:09.280Z,1013.45
2019-02-20T02:52:09.256Z,1013.42
2019-02-20T02:53:09.244Z,1013.47
2019-02-20T02:54:09.237Z,1013.47
2019-02-20T02:55:09.230Z,1013.47
2019-02-20T02:56:09.218Z,1013.48
2019-02-20T02:57:09.215Z,1013.49
2019-02-20T02:58:09.205Z,1013.48
2019-02-20T02:59:09.192Z,1013.56
2019-02-20T03:00:09.189Z,1013.55
2019-02-20T03:01:09.176Z,1013.54
2019-02-20T03:02:09.169Z,1013.53
2019-02-20T03:03:09.160Z,1013.52
2019-02-20T03:04:09.156Z,1013.50
2019-02-20T03:05:09.147Z,1013.49
2019-02-20T03:06:09.138Z,1013.50
2019-02-20T03:07:09.504Z,1013.51
2019-02-20T03:08:09.126Z,1013.49
2019-02-20T03:09:09.116Z,1013.50
2019-02-20T03:10:09.104Z,1013.52
2019-02-20T03:11:09.099Z,1013.49
2019-02-20T03:12:09.096Z,1013.53
2019-02-20T03:13:09.082Z,1013.53
2019-02-20T03:14:09.103Z,1013.51
2019-02-20T03:15:09.065Z,1013.53
2019-02-20T03:16:09.054Z,1013.52
2019-02-20T03:17:09.048Z,1013.54
2019-02-20T03:18:09.046Z,1013.55
2019-02-20T03:19:09.030Z,1013.54
2019-02-20T03:20:09.021Z,1013.58
2019-02-20T03:21:09.014Z,1013.58
2019-02-20T03:22:09.007Z,1013.54
2019-02-20T03:23:08.997Z,1013.58
2019-02-20T03:24:08.988Z,1013.60
2019-02-20T03:25:08.980Z,1013.60
2019-02-20T03:26:08.972Z,1013.61
2019-02-20T03:27:08.963Z,1013.60
2019-02-20T03:28:08.954Z,1013.64
2019-02-20T03:29:08.946Z,1013.65
2019-02-20T03:30:08.938Z,1013.63
2019-02-20T03:31:08.941Z,1013.63
2019-02-20T03:32:08.930Z,1013.65
2019-02-20T03:33:08.915Z,1013.69
2019-02-20T03:34:09.174Z,1013.71
2019-02-20T03:35:08.895Z,1013.72
2019-02-20T03:36:08.889Z,1013.67
2019-02-20T03:37:08.887Z,1013.67
2019-02-20T03:38:08.870Z,1013.68
2019-02-20T03:39:08.863Z,1013.75
2019-02-20T03:40:08.860Z,1013.76
2019-02-20T03:41:08.857Z,1013.74
2019-02-20T03:42:08.837Z,1013.74
2019-02-20T03:43:08.832Z,1013.75
2019-02-20T03:44:08.823Z,1013.73
2019-02-20T03:45:08.816Z,1013.73
2019-02-20T03:46:08.816Z,1013.71
2019-02-20T03:47:08.796Z,1013.75
2019-02-20T03:48:08.789Z,1013.69
2019-02-20T03:49:08.779Z,1013.64
2019-02-20T03:50:08.775Z,1013.66
2019-02-20T03:51:08.771Z,1013.73
2019-02-20T03:52:08.755Z,1013.67
2019-02-20T03:53:08.749Z,1013.72
2019-02-20T03:54:08.738Z,1013.73
2019-02-20T03:55:08.732Z,1013.79
2019-02-20T03:56:08.723Z,1013.81
2019-02-20T03:57:08.712Z,1013.75
2019-02-20T03:58:08.708Z,1013.78
2019-02-20T03:59:08.698Z,1013.76
2019-02-20T04:00:08.688Z,1013.80
2019-02-20T04:01:08.680Z,1013.76
2019-02-20T04:02:08.686Z,1013.77
2019-02-20T04:03:08.666Z,1013.77
2019-02-20T04:04:08.658Z,1013.74
2019-02-20T04:05:08.646Z,1013.77
2019-02-20T04:06:08.640Z,1013.73
2019-02-20T04:07:08.631Z,1013.77
2019-02-20T04:08:08.670Z,1013.82
2019-02-20T04:09:08.623Z,1013.78
2019-02-20T04:10:09.096Z,1013.81
2019-02-20T04:11:08.600Z,1013.83
2019-02-20T04:12:08.590Z,1013.79
2019-02-20T04:13:08.591Z,1013.78
2019-02-20T04:14:08.573Z,1013.78
2019-02-20T04:15:08.565Z,1013.79
2019-02-20T04:16:08.556Z,1013.77
2019-02-20T04:17:08.573Z,1013.80
2019-02-20T04:18:10.617Z,1013.76
2019-02-20T04:19:08.533Z,1013.82
2019-02-20T04:20:08.534Z,1013.81
2019-02-20T04:21:08.521Z,1013.84
2019-02-20T04:22:08.510Z,1013.85
2019-02-20T04:23:08.501Z,1013.83
2019-02-20T04:24:08.494Z,1013.88
2019-02-20T04:25:08.491Z,1013.88
2019-02-20T04:26:09.908Z,1013.83
2019-02-20T04:27:08.473Z,1013.87
2019-02-20T04:28:08.474Z,1013.84
2019-02-20T04:29:08.454Z,1013.87
2019-02-20T04:30:08.445Z,1013.86
2019-02-20T04:31:08.441Z,1013.83
2019-02-20T04:32:08.427Z,1013.81
2019-02-20T04:33:08.425Z,1013.86
2019-02-20T04:34:08.414Z,1013.86
2019-02-20T04:35:08.403Z,1013.83
2019-02-20T04:36:08.412Z,1013.85
2019-02-20T04:37:08.391Z,1013.82
2019-02-20T04:38:08.380Z,1013.82
2019-02-20T04:39:08.372Z,1013.83
2019-02-20T04:40:08.363Z,1013.85
2019-02-20T04:41:08.356Z,1013.87
2019-02-20T04:42:08.347Z,1013.85
2019-02-20T04:43:08.338Z,1013.89
2019-02-20T04:44:08.332Z,1013.89
2019-02-20T04:45:08.323Z,1013.90
2019-02-20T04:46:08.315Z,1013.97
2019-02-20T04:47:08.307Z,1013.97
2019-02-20T04:48:08.309Z,1013.96
2019-02-20T04:49:08.291Z,1013.99
2019-02-20T04:50:08.317Z,1014.01
2019-02-20T04:51:08.281Z,1014.04
2019-02-20T04:52:08.266Z,1014.05
2019-02-20T04:53:08.259Z,1014.02
2019-02-20T04:54:13.240Z,1014.01
2019-02-20T04:55:08.243Z,1013.95
2019-02-20T04:56:08.235Z,1013.94
2019-02-20T04:57:08.231Z,1013.95
2019-02-20T04:58:08.220Z,1013.91
2019-02-20T04:59:08.211Z,1013.93
2019-02-20T05:00:08.215Z,1013.93
2019-02-20T05:01:08.198Z,1013.91
2019-02-20T05:02:08.189Z,1013.99
2019-02-20T05:03:08.180Z,1013.96
2019-02-20T05:04:08.170Z,1013.95
2019-02-20T05:05:08.164Z,1013.97
2019-02-20T05:06:08.157Z,1013.95
2019-02-20T05:07:08.146Z,1013.94
2019-02-20T05:08:08.146Z,1013.91
2019-02-20T05:09:08.135Z,1013.96
2019-02-20T05:10:08.123Z,1013.90
2019-02-20T05:11:08.116Z,1013.94
2019-02-20T05:12:08.107Z,1013.94
2019-02-20T05:13:08.101Z,1013.97
2019-02-20T05:14:08.094Z,1013.97
2019-02-20T05:15:08.087Z,1013.99
2019-02-20T05:16:08.075Z,1013.97
2019-02-20T05:17:08.071Z,1013.99
2019-02-20T05:18:08.062Z,1014.02
2019-02-20T05:19:08.054Z,1013.98
2019-02-20T05:20:08.046Z,1013.95
2019-02-20T05:21:08.041Z,1013.94
2019-02-20T05:22:08.028Z,1013.94
2019-02-20T05:23:08.061Z,1013.91
2019-02-20T05:24:08.012Z,1013.96
2019-02-20T05:25:08.007Z,1013.98
2019-02-20T05:26:07.997Z,1013.97
2019-02-20T05:27:07.987Z,1013.99
2019-02-20T05:28:07.981Z,1014.00
2019-02-20T05:29:07.974Z,1014.04
2019-02-20T05:30:07.966Z,1014.02
2019-02-20T05:31:07.958Z,1013.99
2019-02-20T05:32:07.949Z,1013.97
2019-02-20T05:33:07.945Z,1013.95
2019-02-20T05:34:07.934Z,1013.93
2019-02-20T05:35:07.938Z,1013.96
2019-02-20T05:36:07.922Z,1013.92
2019-02-20T05:37:07.911Z,1013.96
2019-02-20T05:38:07.903Z,1013.99
2019-02-20T05:39:07.894Z,1014.04
2019-02-20T05:40:07.887Z,1014.03
2019-02-20T05:41:07.877Z,1014.03
2019-02-20T05:42:07.870Z,1014.02
2019-02-20T05:43:07.863Z,1014.04
2019-02-20T05:44:07.854Z,1014.07
2019-02-20T05:45:07.848Z,1014.04
2019-02-20T05:46:07.840Z,1014.10
2019-02-20T05:47:07.832Z,1014.09
2019-02-20T05:48:07.823Z,1014.04
2019-02-20T05:49:07.819Z,1014.07
2019-02-20T05:50:07.810Z,1014.13
2019-02-20T05:51:07.802Z,1014.13
2019-02-20T05:52:07.794Z,1014.17
2019-02-20T05:53:07.785Z,1014.18
2019-02-20T05:54:07.857Z,1014.21
2019-02-20T05:55:07.767Z,1014.21
2019-02-20T05:56:07.760Z,1014.20
2019-02-20T05:57:07.754Z,1014.24
2019-02-20T05:58:07.749Z,1014.21
2019-02-20T05:59:07.740Z,1014.18
2019-02-20T06:00:07.728Z,1014.15
2019-02-20T06:01:07.720Z,1014.18
2019-02-20T06:02:07.715Z,1014.21
2019-02-20T06:03:07.708Z,1014.24
2019-02-20T06:04:07.698Z,1014.27
2019-02-20T06:05:07.690Z,1014.22
2019-02-20T06:06:07.681Z,1014.24
2019-02-20T06:07:07.681Z,1014.25
2019-02-20T06:08:07.664Z,1014.26
2019-02-20T06:09:07.656Z,1014.25
2019-02-20T06:10:07.651Z,1014.25
2019-02-20T06:11:14.834Z,1014.27
2019-02-20T06:12:07.633Z,1014.28
2019-02-20T06:13:07.628Z,1014.30
2019-02-20T06:14:07.619Z,1014.27
2019-02-20T06:15:07.612Z,1014.26
2019-02-20T06:16:07.606Z,1014.26
2019-02-20T06:17:07.595Z,1014.27
2019-02-20T06:18:07.587Z,1014.29
2019-02-20T06:19:07.580Z,1014.30
2019-02-20T06:20:07.570Z,1014.28
2019-02-20T06:21:07.565Z,1014.31
2019-02-20T06:22:07.559Z,1014.35
2019-02-20T06:23:07.548Z,1014.37
2019-02-20T06:24:07.541Z,1014.43
2019-02-20T06:25:07.585Z,1014.42
2019-02-20T06:26:07.535Z,1014.45
2019-02-20T06:27:08.017Z,1014.46
2019-02-20T06:28:07.512Z,1014.43
2019-02-20T06:29:07.502Z,1014.44
2019-02-20T06:30:07.493Z,1014.47
2019-02-20T06:31:07.486Z,1014.49
2019-02-20T06:32:07.477Z,1014.53
2019-02-20T06:33:07.473Z,1014.54
2019-02-20T06:34:07.463Z,1014.55
2019-02-20T06:35:07.458Z,1014.56
2019-02-20T06:36:07.448Z,1014.56
2019-02-20T06:37:07.441Z,1014.57
2019-02-20T06:38:10.753Z,1014.57
2019-02-20T06:39:07.424Z,1014.60
2019-02-20T06:40:07.416Z,1014.61
2019-02-20T06:41:07.410Z,1014.60
2019-02-20T06:42:07.408Z,1014.52
2019-02-20T06:43:07.396Z,1014.61
2019-02-20T06:44:07.385Z,1014.60
2019-02-20T06:45:07.379Z,1014.63
2019-02-20T06:46:07.370Z,1014.69
2019-02-20T06:47:07.362Z,1014.72
2019-02-20T06:48:07.355Z,1014.71
2019-02-20T06:49:07.351Z,1014.73
2019-02-20T06:50:07.340Z,1014.69
2019-02-20T06:51:07.331Z,1014.70
2019-02-20T06:52:07.324Z,1014.68
2019-02-20T06:53:07.316Z,1014.69
2019-02-20T06:54:07.315Z,1014.71
2019-02-20T06:55:07.306Z,1014.68
2019-02-20T06:56:07.292Z,1014.68
2019-02-20T06:57:07.284Z,1014.69
2019-02-20T06:58:07.280Z,1014.75
2019-02-20T06:59:07.273Z,1014.74
2019-02-20T07:00:07.276Z,1014.77
2019-02-20T07:01:07.258Z,1014.78
2019-02-20T07:02:07.248Z,1014.79
2019-02-20T07:03:07.245Z,1014.84
2019-02-20T07:04:07.233Z,1014.83
2019-02-20T07:05:07.228Z,1014.87
2019-02-20T07:06:07.222Z,1014.81
2019-02-20T07:07:07.211Z,1014.84
2019-02-20T07:08:07.207Z,1014.87
2019-02-20T07:09:07.199Z,1014.83
2019-02-20T07:10:07.190Z,1014.88
2019-02-20T07:11:07.181Z,1014.89
2019-02-20T07:12:07.174Z,1014.87
2019-02-20T07:13:07.171Z,1014.90
2019-02-20T07:14:07.219Z,1014.94
2019-02-20T07:15:07.151Z,1014.96
2019-02-20T07:16:07.145Z,1014.96
2019-02-20T07:17:07.136Z,1014.95
2019-02-20T07:18:07.128Z,1014.98
2019-02-20T07:19:07.124Z,1015.00
2019-02-20T07:20:07.115Z,1015.06
2019-02-20T07:21:07.109Z,1015.03
2019-02-20T07:22:07.099Z,1015.07
2019-02-20T07:23:07.090Z,1015.07
2019-02-20T07:24:07.084Z,1015.09
2019-02-20T07:25:07.077Z,1015.11
2019-02-20T07:26:07.070Z,1015.14
2019-02-20T07:27:07.062Z,1015.11
2019-02-20T07:28:07.056Z,1015.13
2019-02-20T07:29:07.051Z,1015.15
2019-02-20T07:30:07.044Z,1015.17
2019-02-20T07:31:07.035Z,1015.14
2019-02-20T07:32:07.025Z,1015.17
2019-02-20T07:33:07.020Z,1015.21
2019-02-20T07:34:07.014Z,1015.23
2019-02-20T07:35:07.004Z,1015.28
2019-02-20T07:36:06.997Z,1015.27
2019-02-20T07:37:06.990Z,1015.28
2019-02-20T07:38:06.983Z,1015.30
2019-02-20T07:39:06.976Z,1015.30
2019-02-20T07:40:06.973Z,1015.31
2019-02-20T07:41:06.961Z,1015.33
2019-02-20T07:42:06.952Z,1015.38
2019-02-20T07:43:06.945Z,1015.33
2019-02-20T07:44:06.942Z,1015.38
2019-02-20T07:45:06.933Z,1015.43
2019-02-20T07:46:06.924Z,1015.39
2019-02-20T07:47:06.916Z,1015.42
2019-02-20T07:48:06.914Z,1015.43
2019-02-20T07:49:06.906Z,1015.41
2019-02-20T07:50:06.895Z,1015.42
2019-02-20T07:51:06.889Z,1015.43
2019-02-20T07:52:06.885Z,1015.47
2019-02-20T07:53:06.875Z,1015.55
2019-02-20T07:54:06.869Z,1015.58
2019-02-20T07:55:13.381Z,1015.55
2019-02-20T07:56:06.856Z,1015.60
2019-02-20T07:57:06.846Z,1015.53
2019-02-20T07:58:06.842Z,1015.59
2019-02-20T07:59:06.831Z,1015.62
2019-02-20T08:00:06.830Z,1015.61
2019-02-20T08:01:06.819Z,1015.66
2019-02-20T08:02:06.817Z,1015.61
2019-02-20T08:03:06.809Z,1015.63
2019-02-20T08:04:06.800Z,1015.62
2019-02-20T08:05:06.795Z,1015.65
2019-02-20T08:06:06.786Z,1015.66
2019-02-20T08:07:06.776Z,1015.67
2019-02-20T08:08:06.772Z,1015.66
2019-02-20T08:09:06.769Z,1015.68
2019-02-20T08:10:06.755Z,1015.68
2019-02-20T08:11:06.748Z,1015.66
2019-02-20T08:12:06.741Z,1015.66
2019-02-20T08:13:06.735Z,1015.74
2019-02-20T08:14:06.729Z,1015.69
2019-02-20T08:15:06.724Z,1015.74
2019-02-20T08:16:06.713Z,1015.75
2019-02-20T08:17:06.707Z,1015.73
2019-02-20T08:18:06.697Z,1015.79
2019-02-20T08:19:06.698Z,1015.82
2019-02-20T08:20:06.687Z,1015.78
2019-02-20T08:21:06.686Z,1015.77
2019-02-20T08:22:06.682Z,1015.76
2019-02-20T08:23:06.665Z,1015.78
2019-02-20T08:24:06.658Z,1015.81
2019-02-20T08:25:06.653Z,1015.81
2019-02-20T08:26:06.643Z,1015.79
2019-02-20T08:27:06.636Z,1015.84
2019-02-20T08:28:06.630Z,1015.85
2019-02-20T08:29:06.622Z,1015.88
2019-02-20T08:30:06.618Z,1015.91
2019-02-20T08:31:06.610Z,1015.90
2019-02-20T08:32:06.599Z,1015.90
2019-02-20T08:33:06.595Z,1015.95
2019-02-20T08:34:06.587Z,1015.95
2019-02-20T08:35:06.580Z,1015.98
2019-02-20T08:36:06.572Z,1016.00
2019-02-20T08:37:06.579Z,1015.97
2019-02-20T08:38:06.559Z,1016.00
2019-02-20T08:39:06.550Z,1015.98
2019-02-20T08:40:06.544Z,1016.01
2019-02-20T08:41:06.538Z,1016.01
2019-02-20T08:42:06.531Z,1016.03
2019-02-20T08:43:06.523Z,1016.06
2019-02-20T08:44:06.518Z,1016.08
2019-02-20T08:45:06.508Z,1016.12
2019-02-20T08:46:06.502Z,1016.13
2019-02-20T08:47:06.495Z,1016.17
2019-02-20T08:48:06.489Z,1016.19
2019-02-20T08:49:06.482Z,1016.20
2019-02-20T08:50:06.492Z,1016.22
2019-02-20T08:51:06.467Z,1016.25
2019-02-20T08:52:06.457Z,1016.31
2019-02-20T08:53:06.452Z,1016.29
2019-02-20T08:54:06.449Z,1016.28
2019-02-20T08:55:06.440Z,1016.32
2019-02-20T08:56:06.432Z,1016.30
2019-02-20T08:57:06.424Z,1016.31
2019-02-20T08:58:06.416Z,1016.37
2019-02-20T08:59:06.414Z,1016.37
2019-02-20T09:00:06.406Z,1016.37
2019-02-20T09:01:06.396Z,1016.35
2019-02-20T09:02:06.388Z,1016.40
2019-02-20T09:03:06.378Z,1016.40
2019-02-20T09:04:06.399Z,1016.41
2019-02-20T09:05:06.372Z,1016.39
2019-02-20T09:06:06.361Z,1016.42
2019-02-20T09:07:06.355Z,1016.43
2019-02-20T09:08:06.346Z,1016.44
2019-02-20T09:09:06.338Z,1016.44
2019-02-20T09:10:06.366Z,1016.49
2019-02-20T09:11:06.329Z,1016.50
2019-02-20T09:12:06.319Z,1016.47
2019-02-20T09:13:06.314Z,1016.54
2019-02-20T09:14:06.307Z,1016.51
2019-02-20T09:15:06.302Z,1016.55
2019-02-20T09:16:06.294Z,1016.53
2019-02-20T09:17:06.291Z,1016.60
2019-02-20T09:18:06.281Z,1016.59
2019-02-20T09:19:06.275Z,1016.59
2019-02-20T09:20:06.266Z,1016.62
2019-02-20T09:21:06.259Z,1016.62
2019-02-20T09:22:06.255Z,1016.62
2019-02-20T09:23:06.246Z,1016.64
2019-02-20T09:24:06.239Z,1016.61
2019-02-20T09:25:06.232Z,1016.64
2019-02-20T09:26:06.229Z,1016.62
2019-02-20T09:27:06.221Z,1016.63
2019-02-20T09:28:06.215Z,1016.64
2019-02-20T09:29:06.207Z,1016.65
2019-02-20T09:30:06.201Z,1016.63
2019-02-20T09:31:06.193Z,1016.59
2019-02-20T09:32:06.192Z,1016.65
2019-02-20T09:33:06.184Z,1016.64
2019-02-20T09:34:06.177Z,1016.63
2019-02-20T09:35:06.171Z,1016.62
2019-02-20T09:36:06.165Z,1016.62
2019-02-20T09:37:06.156Z,1016.66
2019-02-20T09:38:06.150Z,1016.67
2019-02-20T09:39:06.156Z,1016.70
2019-02-20T09:40:06.138Z,1016.69
2019-02-20T09:41:06.132Z,1016.71
2019-02-20T09:42:06.214Z,1016.71
2019-02-20T09:43:06.120Z,1016.68
2019-02-20T09:44:06.113Z,1016.66
2019-02-20T09:45:06.109Z,1016.63
2019-02-20T09:46:06.106Z,1016.66
2019-02-20T09:47:06.094Z,1016.69
2019-02-20T09:48:06.088Z,1016.67
2019-02-20T09:49:06.082Z,1016.71
2019-02-20T09:50:06.083Z,1016.75
2019-02-20T09:51:06.071Z,1016.77
2019-02-20T09:52:06.065Z,1016.77
2019-02-20T09:53:06.059Z,1016.80
2019-02-20T09:54:06.057Z,1016.82
2019-02-20T09:55:06.046Z,1016.86
2019-02-20T09:56:06.041Z,1016.85
2019-02-20T09:57:06.035Z,1016.86
2019-02-20T09:58:06.038Z,1016.85
2019-02-20T09:59:06.023Z,1016.88
2019-02-20T10:00:06.019Z,1016.84
2019-02-20T10:01:06.014Z,1016.78
2019-02-20T10:02:06.006Z,1016.76
2019-02-20T10:03:06.002Z,1016.73
2019-02-20T10:04:06.077Z,1016.75
2019-02-20T10:05:06.057Z,1016.70
2019-02-20T10:06:05.982Z,1016.71
2019-02-20T10:07:05.975Z,1016.72
2019-02-20T10:08:06.009Z,1016.74
2019-02-20T10:09:05.965Z,1016.73
2019-02-20T10:10:05.959Z,1016.76
2019-02-20T10:11:05.953Z,1016.74
2019-02-20T10:12:05.948Z,1016.76
2019-02-20T10:13:05.944Z,1016.78
2019-02-20T10:14:05.936Z,1016.78
2019-02-20T10:15:05.930Z,1016.81
2019-02-20T10:16:05.923Z,1016.80
2019-02-20T10:17:05.918Z,1016.82
2019-02-20T10:18:07.603Z,1016.91
2019-02-20T10:19:05.907Z,1016.91
2019-02-20T10:20:05.906Z,1016.89
2019-02-20T10:21:05.894Z,1016.94
2019-02-20T10:22:05.888Z,1016.99
2019-02-20T10:23:05.882Z,1016.99
2019-02-20T10:24:05.875Z,1017.06
2019-02-20T10:25:05.869Z,1017.05
2019-02-20T10:26:05.866Z,1016.99
2019-02-20T10:27:05.857Z,1017.05
2019-02-20T10:28:05.854Z,1017.03
2019-02-20T10:29:05.848Z,1017.04
2019-02-20T10:30:05.846Z,1017.05
2019-02-20T10:31:05.832Z,1017.05
2019-02-20T10:32:05.830Z,1017.07
2019-02-20T10:33:05.823Z,1017.12
2019-02-20T10:34:05.817Z,1017.11
2019-02-20T10:35:05.813Z,1017.11
2019-02-20T10:36:05.811Z,1017.09
2019-02-20T10:37:05.838Z,1017.08
2019-02-20T10:38:05.794Z,1017.01
2019-02-20T10:39:05.790Z,1017.04
2019-02-20T10:40:05.781Z,1017.06
2019-02-20T10:41:05.775Z,1017.08
2019-02-20T10:42:05.771Z,1017.02
2019-02-20T10:43:05.769Z,1017.06
2019-02-20T10:44:05.759Z,1017.04
2019-02-20T10:45:05.753Z,1017.04
2019-02-20T10:46:05.748Z,1017.02
2019-02-20T10:47:05.741Z,1017.06
2019-02-20T10:48:05.733Z,1017.07
2019-02-20T10:49:05.731Z,1017.07
2019-02-20T10:50:05.724Z,1017.10
2019-02-20T10:51:05.728Z,1017.11
2019-02-20T10:52:05.711Z,1017.14
2019-02-20T10:53:05.708Z,1017.09
2019-02-20T10:54:05.702Z,1017.12
2019-02-20T10:55:05.695Z,1017.05
2019-02-20T10:56:09.399Z,1017.06
2019-02-20T10:57:05.684Z,1017.05
2019-02-20T10:58:05.678Z,1017.06
2019-02-20T10:59:05.668Z,1017.09
2019-02-20T11:00:05.672Z,1017.10
2019-02-20T11:01:05.659Z,1017.09
2019-02-20T11:02:05.653Z,1017.09
2019-02-20T11:03:05.649Z,1017.08
2019-02-20T11:04:05.645Z,1017.04
2019-02-20T11:05:05.638Z,1017.05
2019-02-20T11:06:05.629Z,1017.05
2019-02-20T11:07:05.622Z,1017.01
2019-02-20T11:08:05.619Z,1017.02
2019-02-20T11:09:05.611Z,1017.04
2019-02-20T11:10:05.608Z,1017.03
2019-02-20T11:11:05.600Z,1017.07
2019-02-20T11:12:05.596Z,1017.04
2019-02-20T11:13:05.589Z,1017.10
2019-02-20T11:14:05.588Z,1017.15
2019-02-20T11:15:05.579Z,1017.12
2019-02-20T11:16:05.575Z,1017.17
2019-02-20T11:17:05.565Z,1017.14
2019-02-20T11:18:05.563Z,1017.17
2019-02-20T11:19:05.565Z,1017.19
2019-02-20T11:20:05.551Z,1017.18
2019-02-20T11:21:05.546Z,1017.16
2019-02-20T11:22:05.541Z,1017.09
2019-02-20T11:23:05.537Z,1017.10
2019-02-20T11:24:05.527Z,1017.12
2019-02-20T11:25:05.523Z,1017.08
2019-02-20T11:26:05.516Z,1017.07
2019-02-20T11:27:05.510Z,1017.08
2019-02-20T11:28:05.506Z,1017.06
2019-02-20T11:29:05.505Z,1017.03
2019-02-20T11:30:07.223Z,1017.05
2019-02-20T11:31:05.490Z,1017.02
2019-02-20T11:32:05.484Z,1017.03
2019-02-20T11:33:05.481Z,1017.03
2019-02-20T11:34:05.476Z,1017.00
2019-02-20T11:35:05.467Z,1017.00
2019-02-20T11:36:05.464Z,1016.97
2019-02-20T11:37:05.457Z,1017.00
2019-02-20T11:38:05.454Z,1017.06
2019-02-20T11:39:05.446Z,1017.01
2019-02-20T11:40:05.444Z,1017.00
2019-02-20T11:41:05.435Z,1017.02
2019-02-20T11:42:05.429Z,1017.00
2019-02-20T11:43:06.263Z,1017.00
2019-02-20T11:44:05.418Z,1016.99
2019-02-20T11:45:05.416Z,1016.99
2019-02-20T11:46:05.407Z,1016.93
2019-02-20T11:47:05.402Z,1016.99
2019-02-20T11:48:05.398Z,1016.95
2019-02-20T11:49:05.391Z,1016.99
2019-02-20T11:50:05.385Z,1016.97
2019-02-20T11:51:05.380Z,1017.00
2019-02-20T11:52:05.374Z,1016.95
2019-02-20T11:53:05.370Z,1016.97
2019-02-20T11:54:05.363Z,1017.00
2019-02-20T11:55:05.550Z,1016.95
2019-02-20T11:56:05.353Z,1016.96
2019-02-20T11:57:05.347Z,1016.94
2019-02-20T11:58:05.343Z,1016.99
2019-02-20T11:59:05.340Z,1016.96
2019-02-20T12:00:05.332Z,1016.94
2019-02-20T12:01:05.331Z,1016.95
2019-02-20T12:02:05.327Z,1016.92
2019-02-20T12:03:05.317Z,1016.89
2019-02-20T12:04:05.309Z,1016.86
2019-02-20T12:05:05.304Z,1016.90